Time;durP1;ratioP1;P1;durP2;ratioP2;P2;SDS_P1;SDS_P2;PMS_P1;PMS_P2;Temp;Humidity;BMP_temperature;BMP_pressure;BME280_temperature;BME280_humidity;BME280_pressure;Samples;Min_cycle;Max_cycle;Signal;HPM_P1;HPM_P2
2022/07/24 15:17:05;;;;;;;7.57;7.07;;;33.10;37.50;;;;;;5131859;27;20594;-88
2022/07/24 15:19:32;;;;;;;8.00;7.30;;;;;;;;;;5131661;27;20838;-89
2022/07/24 15:21:59;;;;;;;7.70;7.07;;;;;;;;;;5130113;27;20454;-87
2022/07/24 15:24:27;;;;;;;7.10;6.40;;;;;;;;;;5131190;27;20443;-91
2022/07/24 15:26:54;;;;;;;7.40;6.80;;;;;;;;;;5131233;27;20451;-84
2022/07/24 15:29:21;;;;;;;7.87;7.27;;;;;;;;;;5131238;27;20450;-88
2022/07/24 15:31:48;;;;;;;7.33;6.83;;;;;;;;;;5131237;27;20825;-86
2022/07/24 15:34:16;;;;;;;7.07;6.50;;;32.40;37.90;;;;;;5131058;27;20443;-85
2022/07/24 15:36:43;;;;;;;7.90;7.30;;;;;;;;;;5129653;27;20501;-86
2022/07/24 15:39:11;;;;;;;8.20;7.50;;;32.40;38.20;;;;;;5130926;27;20443;-84
2022/07/24 15:41:38;;;;;;;7.50;6.80;;;;;;;;;;5131067;27;20451;-87
2022/07/24 15:44:06;;;;;;;6.90;6.40;;;;;;;;;;5131066;27;20454;-86
2022/07/24 15:46:33;;;;;;;7.77;7.17;;;;;;;;;;5130860;27;20454;-85
2022/07/24 15:49:00;;;;;;;8.10;7.50;;;;;;;;;;5130753;27;20454;-86
2022/07/24 15:51:28;;;;;;;7.80;7.20;;;32.20;40.20;;;;;;5129755;28;20459;-87
2022/07/24 15:53:55;;;;;;;8.33;7.63;;;;;;;;;;5130913;27;20446;-86
2022/07/24 15:56:22;;;;;;;8.30;7.60;;;;;;;;;;5130797;27;20486;-87
2022/07/24 15:58:49;;;;;;;8.10;7.30;;;;;;;;;;5130596;28;20435;-85
2022/07/24 16:01:16;;;;;;;9.30;8.20;;;;;;;;;;5130626;27;20447;-90
2022/07/24 16:03:43;;;;;;;7.90;7.30;;;;;;;;;;5130578;27;20450;-89
2022/07/24 16:06:11;;;;;;;7.43;6.83;;;;;;;;;;5130569;27;20458;-89
2022/07/24 16:08:39;;;;;;;8.23;7.63;;;31.90;41.00;;;;;;5129485;27;20458;-86
2022/07/24 16:11:06;;;;;;;7.90;7.20;;;;;;;;;;5130544;27;20815;-88
2022/07/24 16:13:33;;;;;;;7.60;7.10;;;;;;;;;;5130352;27;20451;-84
2022/07/24 16:16:00;;;;;;;7.57;6.87;;;;;;;;;;5155713;27;20474;-84
2022/07/24 16:18:27;;;;;;;8.63;7.93;;;;;;;;;;5149056;27;20464;-85
2022/07/24 16:20:54;;;;;;;8.97;7.33;;;;;;;;;;5130732;27;20443;-86
2022/07/24 16:23:21;;;;;;;7.90;6.57;;;;;;;;;;5129786;27;20446;-86
2022/07/24 16:25:49;;;;;;;7.53;6.83;;;31.30;41.50;;;;;;5130584;28;20447;-84
2022/07/24 16:28:17;;;;;;;7.50;6.80;;;;;;;;;;5117584;28;20795;-86
2022/07/24 16:30:44;;;;;;;8.73;8.13;;;;;;;;;;5117335;28;20471;-87
2022/07/24 16:33:11;;;;;;;8.17;7.47;;;;;;;;;;5117121;28;20459;-83
2022/07/24 16:35:38;;;;;;;9.47;8.63;;;;;;;;;;5117597;28;20483;-84
2022/07/24 16:38:05;;;;;;;8.70;8.00;;;;;;;;;;5115238;28;20447;-85
2022/07/24 16:40:32;;;;;;;8.60;7.83;;;;;;;;;;5116190;28;20455;-84
2022/07/24 16:43:00;;;;;;;8.00;7.40;;;30.50;48.10;;;;;;5116376;28;20444;-84
2022/07/24 16:45:27;;;;;;;8.70;8.00;;;;;;;;;;5115993;28;20454;-89
2022/07/24 16:47:54;;;;;;;8.97;8.23;;;;;;;;;;5116180;28;20448;-85
2022/07/24 16:50:21;;;;;;;7.80;7.20;;;;;;;;;;5116087;28;20459;-85
2022/07/24 16:52:49;;;;;;;8.80;8.10;;;;;;;;;;5114741;28;20462;-85
2022/07/24 16:55:16;;;;;;;9.10;8.30;;;;;;;;;;5116932;28;20451;-86
2022/07/24 16:57:43;;;;;;;9.50;7.67;;;;;;;;;;5117415;28;20444;-85
2022/07/24 17:00:13;;;;;;;8.37;7.60;;;30.30;46.40;;;;;;5119610;28;20440;-85
2022/07/24 17:02:42;;;;;;;8.90;7.83;;;;;;;;;;5116733;28;20479;-84
2022/07/24 17:05:09;;;;;;;10.43;7.93;;;;;;;;;;5116491;28;20810;-86
2022/07/24 17:07:36;;;;;;;8.80;8.00;;;;;;;;;;5114785;28;20451;-86
2022/07/24 17:10:04;;;;;;;7.87;7.27;;;;;;;;;;5116272;28;20444;-85
2022/07/24 17:12:31;;;;;;;8.33;7.63;;;;;;;;;;5116763;28;20477;-85
2022/07/24 17:14:58;;;;;;;10.00;9.00;;;;;;;;;;5116300;28;20479;-86
2022/07/24 17:17:57;;;;;;;9.23;8.47;;;30.10;48.40;;;;;;5116016;28;20503;-84
2022/07/24 17:20:14;;;;;;;9.10;8.40;;;;;;;;;;5115661;28;20477;-86
2022/07/24 17:22:41;;;;;;;9.80;8.80;;;;;;;;;;5114798;28;20501;-84
2022/07/24 17:25:08;;;;;;;8.90;8.20;;;29.90;46.20;;;;;;5115702;28;20948;-85
2022/07/24 17:27:36;;;;;;;8.60;7.90;;;;;;;;;;5121078;28;20452;-85
2022/07/24 17:30:07;;;;;;;10.10;8.30;;;29.80;44.30;;;;;;5128911;28;20841;-81
2022/07/24 17:32:35;;;;;;;9.20;8.40;;;;;;;;;;5119159;28;20440;-83
2022/07/24 17:35:03;;;;;;;9.67;8.87;;;;;;;;;;5120317;28;20459;-84
2022/07/24 17:37:31;;;;;;;8.10;7.47;;;;;;;;;;5115606;28;21073;-83
2022/07/24 17:39:58;;;;;;;9.93;7.70;;;;;;;;;;5118887;28;20444;-83
2022/07/24 17:42:26;;;;;;;8.97;8.17;;;;;;;;;;5115189;28;20444;-84
2022/07/24 17:44:53;;;;;;;8.90;8.20;;;;;;;;;;5115039;28;20498;-84
2022/07/24 17:47:20;;;;;;;9.13;8.43;;;;;;;;;;5113751;28;20443;-85
2022/07/24 17:49:48;;;;;;;10.07;8.67;;;29.30;47.80;;;;;;5114628;28;20451;-84
2022/07/24 17:52:15;;;;;;;9.90;9.10;;;;;;;;;;5116651;28;20443;-85
2022/07/24 17:54:42;;;;;;;8.40;7.70;;;;;;;;;;5114747;28;20803;-87
2022/07/24 17:57:09;;;;;;;9.43;8.73;;;;;;;;;;5114929;28;20498;-85
2022/07/24 17:59:36;;;;;;;9.40;8.60;;;;;;;;;;5116297;28;20454;-84
2022/07/24 18:02:05;;;;;;;9.20;8.40;;;29.10;49.10;;;;;;5126733;28;20504;-84
2022/07/24 18:04:32;;;;;;;9.47;8.30;;;;;;;;;;5095250;28;20452;-84
2022/07/24 18:07:00;;;;;;;8.80;8.03;;;29.00;51.90;;;;;;5094226;28;20531;-83
2022/07/24 18:09:27;;;;;;;8.97;8.17;;;;;;;;;;5088098;28;20449;-84
2022/07/24 18:11:54;;;;;;;9.63;8.83;;;;;;;;;;5093386;28;20471;-84
2022/07/24 18:14:21;;;;;;;10.60;9.60;;;;;;;;;;5092095;28;20471;-83
2022/07/24 18:16:49;;;;;;;9.37;8.57;;;;;;;;;;5091523;28;21041;-85
2022/07/24 18:19:16;;;;;;;9.23;8.37;;;;;;;;;;5090728;28;20460;-83
2022/07/24 18:21:43;;;;;;;10.23;9.00;;;;;;;;;;5092336;28;20445;-84
2022/07/24 18:24:11;;;;;;;10.50;9.40;;;28.60;52.40;;;;;;5114171;28;20448;-83
2022/07/24 18:26:38;;;;;;;8.97;8.27;;;;;;;;;;5114268;28;20440;-85
2022/07/24 18:29:05;;;;;;;9.37;8.47;;;;;;;;;;5114081;28;20447;-85
2022/07/24 18:31:33;;;;;;;10.53;9.60;;;;;;;;;;5114089;28;20455;-85
2022/07/24 18:34:00;;;;;;;9.27;8.57;;;;;;;;;;5113507;28;20447;-83
2022/07/24 18:36:28;;;;;;;9.80;8.90;;;;;;;;;;5113146;28;20475;-86
2022/07/24 18:38:55;;;;;;;9.87;8.70;;;;;;;;;;5115854;28;20452;-85
2022/07/24 18:41:23;;;;;;;10.13;9.13;;;28.10;54.50;;;;;;5115127;28;20444;-86
2022/07/24 18:43:50;;;;;;;10.07;9.10;;;;;;;;;;5115181;28;20923;-85
2022/07/24 18:46:17;;;;;;;10.30;9.50;;;;;;;;;;5114796;28;20981;-86
2022/07/24 18:48:44;;;;;;;10.03;9.33;;;;;;;;;;5114276;28;20463;-85
2022/07/24 18:51:12;;;;;;;10.47;9.57;;;;;;;;;;5114076;28;20479;-85
2022/07/24 18:53:39;;;;;;;12.40;10.10;;;;;;;;;;5115415;28;20447;-86
2022/07/24 18:56:06;;;;;;;9.80;9.00;;;;;;;;;;5138605;28;20458;-86
2022/07/24 18:58:35;;;;;;;9.90;9.17;;;27.40;57.50;;;;;;5132951;28;20444;-86
2022/07/24 19:01:02;;;;;;;10.23;9.43;;;;;;;;;;5113752;28;20444;-86
2022/07/24 19:03:29;;;;;;;15.83;9.23;;;;;;;;;;5113163;28;20985;-86
2022/07/24 19:05:56;;;;;;;11.40;10.20;;;;;;;;;;5113464;28;20447;-86
2022/07/24 19:08:23;;;;;;;11.00;10.10;;;;;;;;;;5112624;28;20459;-87
2022/07/24 19:10:50;;;;;;;14.47;11.83;;;;;;;;;;5113418;28;20463;-86
2022/07/24 19:13:17;;;;;;;11.67;10.50;;;;;;;;;;5113489;28;20471;-86
2022/07/24 19:15:46;;;;;;;11.90;10.60;;;26.00;70.80;;;;;;5113861;28;20476;-87
2022/07/24 19:18:13;;;;;;;10.97;10.07;;;;;;;;;;5113882;28;20492;-87
2022/07/24 19:20:40;;;;;;;10.80;9.80;;;;;;;;;;5113815;28;20471;-85
2022/07/24 19:23:08;;;;;;;10.07;9.17;;;;;;;;;;5112479;28;20955;-87
2022/07/24 19:25:35;;;;;;;10.50;9.60;;;;;;;;;;5113907;28;20455;-87
2022/07/24 19:28:02;;;;;;;9.70;8.80;;;;;;;;;;5112997;28;20448;-86
2022/07/24 19:30:29;;;;;;;10.10;9.10;;;;;;;;;;5113021;28;20539;-86
2022/07/24 19:32:57;;;;;;;11.47;10.47;;;24.80;85.10;;;;;;5114781;28;20451;-86
2022/07/24 19:35:25;;;;;;;10.07;9.13;;;;;;;;;;5117032;28;20448;-86
2022/07/24 19:37:52;;;;;;;11.63;10.73;;;;;;;;;;5114239;28;20491;-86
2022/07/24 19:40:19;;;;;;;10.73;9.83;;;;;;;;;;5109878;28;20449;-85
2022/07/24 19:42:46;;;;;;;11.67;10.67;;;;;;;;;;5117814;28;20455;-86
2022/07/24 19:45:13;;;;;;;11.47;10.10;;;;;;;;;;5113196;28;20447;-86
2022/07/24 19:47:41;;;;;;;11.50;10.50;;;;;;;;;;5113178;28;20455;-85
2022/07/24 19:50:10;;;;;;;12.03;10.93;;;;;;;;;;5113867;28;20448;-84
2022/07/24 19:52:37;;;;;;;11.33;10.37;;;;;;;;;;5113611;28;20432;-86
2022/07/24 19:55:04;;;;;;;10.97;9.97;;;;;;;;;;5113829;28;20456;-86
2022/07/24 19:57:31;;;;;;;11.70;10.60;;;;;;;;;;5112929;28;20483;-87
2022/07/24 19:59:59;;;;;;;10.90;10.00;;;;;;;;;;5112762;28;20448;-85
2022/07/24 20:02:26;;;;;;;12.20;11.10;;;;;;;;;;5115289;28;20456;-86
2022/07/24 20:04:53;;;;;;;11.60;10.50;;;;;;;;;;5118452;28;20450;-87
2022/07/24 20:07:21;;;;;;;11.30;10.40;;;23.60;99.10;;;;;;5116750;28;20452;-87
2022/07/24 20:09:48;;;;;;;11.00;10.10;;;;;;;;;;5117035;28;20443;-86
2022/07/24 20:12:15;;;;;;;10.27;9.30;;;;;;;;;;5118245;28;20809;-86
2022/07/24 20:14:42;;;;;;;14.00;10.07;;;;;;;;;;5116739;28;20451;-87
2022/07/24 20:17:09;;;;;;;12.50;10.87;;;;;;;;;;5117591;28;20483;-86
2022/07/24 20:19:37;;;;;;;10.73;9.83;;;;;;;;;;5117089;28;20440;-86
2022/07/24 20:22:04;;;;;;;10.60;9.70;;;;;;;;;;5115583;28;20440;-86
2022/07/24 20:24:33;;;;;;;11.30;10.40;;;23.10;99.90;;;;;;5117676;28;20992;-86
2022/07/24 20:27:00;;;;;;;10.90;10.10;;;;;;;;;;5085095;28;20879;-87
2022/07/24 20:29:27;;;;;;;10.33;9.53;;;;;;;;;;5118154;28;20440;-88
2022/07/24 20:31:54;;;;;;;11.53;10.53;;;;;;;;;;5118678;28;20969;-86
2022/07/24 20:34:22;;;;;;;10.47;9.50;;;;;;;;;;5119533;28;20853;-86
2022/07/24 20:36:49;;;;;;;10.77;9.87;;;;;;;;;;5117464;28;20488;-85
2022/07/24 20:39:18;;;;;;;11.13;10.07;;;;;;;;;;5116596;28;20448;-86
2022/07/24 20:41:46;;;;;;;10.50;9.50;;;22.70;99.90;;;;;;5118842;28;20455;-86
2022/07/24 20:44:16;;;;;;;10.90;10.00;;;22.50;99.90;;;;;;5118281;28;20447;-87
2022/07/24 20:46:43;;;;;;;11.30;10.20;;;;;;;;;;5118425;28;20459;-87
2022/07/24 20:49:11;;;;;;;11.97;10.50;;;;;;;;;;5116483;28;20459;-87
2022/07/24 20:51:38;;;;;;;9.60;8.80;;;;;;;;;;5115172;28;20447;-86
2022/07/24 20:54:05;;;;;;;11.20;10.30;;;;;;;;;;5116254;28;20444;-85
2022/07/24 20:56:32;;;;;;;10.53;9.63;;;;;;;;;;5115785;28;20980;-86
2022/07/24 20:59:00;;;;;;;10.80;9.90;;;22.20;99.90;;;;;;5115773;28;20455;-86
2022/07/24 21:01:27;;;;;;;11.17;10.17;;;;;;;;;;5115979;28;20444;-85
2022/07/24 21:03:54;;;;;;;10.47;9.57;;;;;;;;;;5115892;28;20995;-86
2022/07/24 21:06:21;;;;;;;11.37;10.27;;;;;;;;;;5116340;28;20444;-86
2022/07/24 21:08:48;;;;;;;9.97;8.97;;;;;;;;;;5115292;28;20455;-86
2022/07/24 21:11:16;;;;;;;11.30;10.23;;;;;;;;;;5115777;28;20448;-87
2022/07/24 21:13:43;;;;;;;10.97;9.87;;;;;;;;;;5115449;28;20444;-86
2022/07/24 21:16:12;;;;;;;17.83;10.20;;;21.80;99.90;;;;;;5119839;28;20487;-86
2022/07/24 21:18:39;;;;;;;10.90;9.97;;;;;;;;;;5120190;28;20487;-86
2022/07/24 21:21:06;;;;;;;11.00;10.10;;;;;;;;;;5118667;28;20444;-86
2022/07/24 21:23:33;;;;;;;11.70;10.70;;;;;;;;;;5117083;28;20447;-85
2022/07/24 21:26:00;;;;;;;11.40;9.80;;;;;;;;;;5117885;28;20451;-86
2022/07/24 21:28:27;;;;;;;10.37;9.37;;;;;;;;;;5120862;28;20440;-87
2022/07/24 21:30:55;;;;;;;11.83;10.63;;;;;;;;;;5115976;28;20501;-88
2022/07/24 21:33:23;;;;;;;10.47;9.57;;;21.40;99.90;;;;;;5115225;28;20476;-86
2022/07/24 21:35:50;;;;;;;10.90;9.90;;;;;;;;;;5139505;28;20431;-86
2022/07/24 21:38:17;;;;;;;11.10;10.00;;;;;;;;;;5133790;28;20440;-85
2022/07/24 21:40:44;;;;;;;11.50;10.30;;;;;;;;;;5115436;28;20993;-87
2022/07/24 21:43:11;;;;;;;11.83;10.07;;;;;;;;;;5114912;28;20444;-86
2022/07/24 21:45:38;;;;;;;10.90;10.00;;;;;;;;;;5115049;28;20444;-86
2022/07/24 21:48:06;;;;;;;10.87;9.87;;;;;;;;;;5114906;28;20490;-86
2022/07/24 21:50:34;;;;;;;10.50;9.60;;;21.10;99.90;;;;;;5114568;28;20470;-86
2022/07/24 21:53:01;;;;;;;11.47;10.57;;;;;;;;;;5113653;28;20812;-86
2022/07/24 21:55:28;;;;;;;10.47;9.60;;;;;;;;;;5114912;28;20459;-85
2022/07/24 21:57:55;;;;;;;11.33;10.37;;;;;;;;;;5114694;28;20444;-88
2022/07/24 22:00:33;;;;;;;12.43;11.23;;;21.00;99.90;;;;;;5114715;28;20484;-86
2022/07/24 22:03:00;;;;;;;11.50;10.40;;;;;;;;;;5114681;28;20458;-86
2022/07/24 22:05:27;;;;;;;11.83;10.63;;;;;;;;;;5114076;28;20444;-88
2022/07/24 22:07:56;;;;;;;11.00;10.10;;;20.90;99.90;;;;;;5113289;28;20492;-86
2022/07/24 22:10:23;;;;;;;10.77;9.87;;;;;;;;;;5114773;28;20440;-86
2022/07/24 22:12:50;;;;;;;11.73;10.70;;;;;;;;;;5114535;28;20451;-86
2022/07/24 22:15:17;;;;;;;12.50;10.87;;;;;;;;;;5114343;28;20479;-86
2022/07/24 22:17:44;;;;;;;11.90;10.77;;;;;;;;;;5114613;28;20452;-86
2022/07/24 22:20:12;;;;;;;11.23;10.33;;;;;;;;;;5114383;28;20456;-86
2022/07/24 22:22:39;;;;;;;10.90;10.03;;;;;;;;;;5113198;28;20436;-86
2022/07/24 22:25:08;;;;;;;11.57;10.57;;;20.50;99.90;;;;;;5113895;28;20455;-87
2022/07/24 22:27:35;;;;;;;11.03;10.13;;;;;;;;;;5114246;28;20483;-87
2022/07/24 22:30:03;;;;;;;12.20;10.93;;;;;;;;;;5086431;27;20466;-86
2022/07/24 22:32:30;;;;;;;10.83;9.83;;;;;;;;;;5073818;28;20449;-87
2022/07/24 22:34:57;;;;;;;10.83;9.93;;;;;;;;;;5073792;28;20449;-87
2022/07/24 22:37:27;;;;;;;11.87;10.87;;;20.40;99.90;;;;;;5072541;28;20446;-86
2022/07/24 22:39:58;;;;;;;12.70;11.60;;;20.40;99.90;;;;;;5069741;28;20462;-86
2022/07/24 22:42:26;;;;;;;11.70;10.70;;;20.30;99.90;;;;;;5073555;28;20460;-86
2022/07/24 22:44:53;;;;;;;11.37;10.10;;;;;;;;;;5073698;28;20460;-86
2022/07/24 22:47:21;;;;;;;13.57;11.13;;;20.30;99.90;;;;;;5073636;28;20485;-87
2022/07/24 22:49:49;;;;;;;11.60;10.60;;;20.20;99.90;;;;;;5073464;28;20456;-86
2022/07/24 22:52:16;;;;;;;11.53;10.53;;;;;;;;;;5072469;28;20449;-86
2022/07/24 22:54:44;;;;;;;12.40;11.20;;;20.20;99.90;;;;;;5073608;28;20457;-86
2022/07/24 22:57:11;;;;;;;11.63;10.57;;;;;;;;;;5078324;28;20453;-87
2022/07/24 22:59:41;;;;;;;13.07;11.43;;;20.20;99.90;;;;;;5079617;28;20449;-86
2022/07/24 23:02:09;;;;;;;11.50;10.40;;;20.20;99.90;;;;;;5073199;28;20456;-87
2022/07/24 23:04:36;;;;;;;11.20;10.30;;;;;;;;;;5073007;28;20450;-86
2022/07/24 23:07:04;;;;;;;12.73;11.60;;;;;;;;;;5071978;28;20445;-86
2022/07/24 23:09:31;;;;;;;10.47;9.57;;;;;;;;;;5072657;28;20452;-86
2022/07/24 23:11:58;;;;;;;13.67;11.97;;;;;;;;;;5072958;28;20438;-87
2022/07/24 23:14:25;;;;;;;11.97;10.87;;;;;;;;;;5072970;28;20449;-86
2022/07/24 23:16:53;;;;;;;12.23;11.13;;;20.00;99.90;;;;;;5072678;28;20473;-86
2022/07/24 23:19:20;;;;;;;12.13;10.60;;;;;;;;;;5072844;28;20807;-86
2022/07/24 23:21:47;;;;;;;12.63;10.87;;;;;;;;;;5071822;28;20456;-86
2022/07/24 23:24:15;;;;;;;12.37;11.13;;;;;;;;;;5072946;28;20449;-86
2022/07/24 23:26:43;;;;;;;12.20;11.07;;;;;;;;;;5072785;28;20940;-85
2022/07/24 23:29:10;;;;;;;12.40;10.93;;;;;;;;;;5072723;28;20564;-86
2022/07/24 23:31:38;;;;;;;14.30;11.30;;;;;;;;;;5072655;28;20825;-86
2022/07/24 23:34:06;;;;;;;12.90;11.80;;;19.80;99.90;;;;;;5072845;28;20453;-86
2022/07/24 23:36:33;;;;;;;12.77;11.53;;;;;;;;;;5071388;28;20796;-85
2022/07/24 23:39:00;;;;;;;11.03;10.03;;;;;;;;;;5076861;28;20530;-85
2022/07/24 23:41:27;;;;;;;12.80;11.60;;;;;;;;;;5076656;28;20445;-86
2022/07/24 23:43:54;;;;;;;11.90;10.90;;;;;;;;;;5076793;28;20448;-86
2022/07/24 23:46:21;;;;;;;12.53;11.20;;;;;;;;;;5076757;28;20446;-86
2022/07/24 23:48:48;;;;;;;12.80;11.60;;;;;;;;;;5076709;28;20484;-86
2022/07/24 23:51:16;;;;;;;10.90;9.90;;;19.50;99.90;;;;;;5076535;28;20452;-85
2022/07/24 23:53:43;;;;;;;10.90;10.00;;;;;;;;;;5075275;28;20817;-87
2022/07/24 23:56:11;;;;;;;11.30;10.40;;;;;;;;;;5076602;28;20788;-86
2022/07/24 23:58:38;;;;;;;12.50;11.40;;;;;;;;;;5076433;28;20946;-87
